Time;durP1;ratioP1;P1;durP2;ratioP2;P2;SDS_P1;SDS_P2;PMS_P1;PMS_P2;Temp;Humidity;BMP_temperature;BMP_pressure;BME280_temperature;BME280_humidity;BME280_pressure;Samples;Min_cycle;Max_cycle;Signal;HPM_P1;HPM_P2
2022/02/12 00:00:25;;;;;;;11.32;6.45;;;;;;;1.82;73.98;98257.28;5039274;28;20053;-87
2022/02/12 00:02:54;;;;;;;12.77;5.35;;;;;;;1.84;72.29;98248.53;5041314;28;20057;-88
2022/02/12 00:05:24;;;;;;;10.38;5.45;;;;;;;1.73;70.80;98244.91;5040617;28;20057;-88
2022/02/12 00:07:54;;;;;;;10.32;5.20;;;;;;;1.63;70.70;98242.84;5039746;28;20087;-89
2022/02/12 00:10:23;;;;;;;9.27;4.97;;;;;;;1.57;71.14;98250.91;5039854;28;20051;-89
2022/02/12 00:12:51;;;;;;;10.35;5.20;;;;;;;1.54;70.46;98247.69;5039440;28;20050;-89
2022/02/12 00:15:20;;;;;;;8.98;5.60;;;;;;;1.44;70.49;98248.19;5038484;28;20053;-87
2022/02/12 00:17:48;;;;;;;11.70;4.70;;;;;;;1.33;70.93;98244.53;5037777;28;20042;-90
2022/02/12 00:20:18;;;;;;;7.03;5.30;;;;;;;1.24;71.11;98243.28;5045822;28;20054;-88
2022/02/12 00:22:46;;;;;;;12.43;4.80;;;;;;;1.19;71.05;98243.53;5050389;28;20048;-90
2022/02/12 00:25:13;;;;;;;11.05;4.95;;;;;;;1.16;71.28;98243.72;5041096;28;20056;-89
2022/02/12 00:27:41;;;;;;;11.70;4.90;;;;;;;1.13;70.96;98230.19;5039466;28;20080;-89
2022/02/12 00:30:10;;;;;;;10.00;6.28;;;;;;;1.05;71.09;98230.63;5039074;28;20115;-89
2022/02/12 00:32:38;;;;;;;15.50;5.82;;;;;;;0.96;71.16;98226.81;5046024;28;20032;-90
2022/02/12 00:35:06;;;;;;;15.18;5.57;;;;;;;0.91;71.44;98227.94;5052736;28;20056;-90
2022/02/12 00:37:35;;;;;;;13.02;6.13;;;;;;;0.82;71.35;98230.06;5045603;28;20045;-91
2022/02/12 00:40:04;;;;;;;12.70;5.38;;;;;;;0.75;71.65;98228.75;5040313;28;20099;-89
2022/02/12 00:42:31;;;;;;;11.90;5.22;;;;;;;0.71;71.68;98227.25;5040032;28;20054;-89
2022/02/12 00:45:00;;;;;;;12.90;5.47;;;;;;;0.72;71.87;98228.06;5039603;28;20060;-90
2022/02/12 00:47:28;;;;;;;12.18;6.30;;;;;;;0.71;72.03;98223.84;5038940;28;20059;-89
2022/02/12 00:49:56;;;;;;;10.63;5.15;;;;;;;0.74;71.89;98221.13;5039601;28;20041;-90
2022/02/12 00:52:24;;;;;;;17.38;5.70;;;;;;;0.74;72.06;98227.06;5036758;28;20057;-89
2022/02/12 00:54:53;;;;;;;13.38;5.43;;;;;;;0.71;71.71;98221.28;5037354;28;20415;-91
2022/02/12 00:57:21;;;;;;;11.05;5.57;;;;;;;0.70;71.79;98217.03;5037421;28;20045;-90
2022/02/12 00:59:49;;;;;;;10.68;5.10;;;;;;;0.66;71.86;98218.97;5039175;28;20058;-90
2022/02/12 01:02:17;;;;;;;15.65;5.32;;;;;;;0.68;72.10;98213.72;5039284;28;20053;-90
2022/02/12 01:04:44;;;;;;;14.73;6.22;;;;;;;0.74;72.21;98208.28;5039302;28;20056;-89
2022/02/12 01:07:12;;;;;;;10.43;5.18;;;;;;;0.76;71.48;98199.56;5039161;28;20049;-89
2022/02/12 01:09:40;;;;;;;11.57;5.13;;;;;;;0.69;71.16;98194.84;5037157;28;20056;-90
2022/02/12 01:12:10;;;;;;;10.95;5.15;;;;;;;0.62;71.50;98191.78;5036945;28;20045;-88
2022/02/12 01:14:38;;;;;;;9.00;5.15;;;;;;;0.61;71.64;98197.81;5036854;28;20531;-89
2022/02/12 01:17:06;;;;;;;10.48;5.53;;;;;;;0.61;71.66;98198.66;5036750;28;20049;-90
2022/02/12 01:19:33;;;;;;;9.25;4.95;;;;;;;0.61;71.32;98196.09;5035847;28;20057;-89
2022/02/12 01:22:01;;;;;;;13.02;5.68;;;;;;;0.57;71.57;98197.16;5035523;28;20053;-89
2022/02/12 01:24:29;;;;;;;12.32;4.90;;;;;;;0.53;71.76;98192.25;5036874;28;20076;-89
2022/02/12 01:26:56;;;;;;;12.10;4.18;;;;;;;0.49;71.76;98186.44;5037178;28;20063;-89
2022/02/12 01:29:25;;;;;;;8.75;4.38;;;;;;;0.43;71.66;98180.81;5037063;28;20055;-86
2022/02/12 01:31:53;;;;;;;10.32;4.68;;;;;;;0.38;72.36;98176.75;5036753;28;20045;-88
2022/02/12 01:34:21;;;;;;;9.35;4.35;;;;;;;0.34;72.17;98172.66;5036554;28;20041;-89
2022/02/12 01:36:51;;;;;;;10.52;4.82;;;;;;;0.29;72.04;98173.81;5036234;28;20053;-87
2022/02/12 01:39:21;;;;;;;12.13;4.95;;;;;;;0.26;72.26;98168.84;5037064;28;20467;-85
2022/02/12 01:41:48;;;;;;;9.20;4.78;;;;;;;0.21;72.14;98176.78;5037428;28;20049;-90
2022/02/12 01:44:16;;;;;;;11.20;4.82;;;;;;;0.20;72.53;98175.13;5036909;28;20522;-85
2022/02/12 01:46:46;;;;;;;12.43;5.07;;;;;;;0.20;72.46;98173.38;5036108;28;20060;-87
2022/02/12 01:49:13;;;;;;;14.13;4.82;;;;;;;0.22;72.45;98168.19;5036526;28;20068;-88
2022/02/12 01:51:41;;;;;;;7.93;4.20;;;;;;;0.23;72.61;98169.81;5036496;28;20056;-85
2022/02/12 01:54:09;;;;;;;11.02;5.07;;;;;;;0.27;72.99;98170.50;5036241;28;20045;-88
2022/02/12 01:56:37;;;;;;;12.40;5.78;;;;;;;0.32;72.41;98168.53;5035475;28;20053;-86
2022/02/12 01:59:05;;;;;;;11.55;4.88;;;;;;;0.37;72.35;98166.53;5036480;28;20396;-83
2022/02/12 02:01:33;;;;;;;9.95;4.90;;;;;;;0.43;71.95;98165.41;5035913;28;20510;-83
2022/02/12 02:04:02;;;;;;;8.38;4.90;;;;;;;0.49;73.33;98163.34;5035942;28;20136;-90
2022/02/12 02:06:29;;;;;;;10.32;4.60;;;;;;;0.58;72.33;98169.72;5035572;28;20125;-87
2022/02/12 02:08:57;;;;;;;9.70;4.43;;;;;;;0.59;71.89;98163.69;5035655;28;20423;-89
2022/02/12 02:11:24;;;;;;;8.82;5.05;;;;;;;0.63;71.70;98166.91;5035972;28;20050;-82
2022/02/12 02:13:52;;;;;;;8.98;4.32;;;;;;;0.64;71.49;98166.84;5034957;28;20049;-82
2022/02/12 02:16:20;;;;;;;12.02;5.20;;;;;;;0.66;71.33;98170.16;5035740;28;20042;-87
2022/02/12 02:18:47;;;;;;;15.13;5.28;;;;;;;0.65;70.96;98159.97;5037079;28;20046;-85
2022/02/12 02:21:18;;;;;;;13.48;4.45;;;;;;;0.57;71.11;98155.25;5035439;28;20045;-88
2022/02/12 02:23:47;;;;;;;8.25;4.88;;;;;;;0.48;71.00;98163.41;5036425;28;20117;-87
2022/02/12 02:26:15;;;;;;;10.75;4.60;;;;;;;0.36;71.02;98150.31;5035518;28;20049;-90
2022/02/12 02:28:43;;;;;;;9.13;4.25;;;;;;;0.32;71.44;98159.06;5035901;28;20046;-86
2022/02/12 02:31:11;;;;;;;12.43;5.63;;;;;;;0.31;71.38;98154.88;5035245;28;20045;-87
2022/02/12 02:33:39;;;;;;;9.45;4.35;;;;;;;0.31;71.28;98166.88;5037669;28;20072;-89
2022/02/12 02:36:06;;;;;;;12.10;4.20;;;;;;;0.33;71.34;98170.19;5038625;28;20063;-87
2022/02/12 02:38:34;;;;;;;14.82;5.25;;;;;;;0.36;71.15;98165.72;5038877;28;20049;-85
2022/02/12 02:41:03;;;;;;;13.75;5.32;;;;;;;0.40;71.37;98172.34;5038292;28;20045;-89
2022/02/12 02:43:31;;;;;;;12.43;5.00;;;;;;;0.50;71.79;98169.31;5037795;28;20495;-82
2022/02/12 02:45:59;;;;;;;11.57;5.75;;;;;;;0.63;73.14;98167.75;5037728;28;20077;-89
2022/02/12 02:48:27;;;;;;;9.35;4.25;;;;;;;0.77;73.35;98160.16;5037887;28;20049;-83
2022/02/12 02:56:27;;;;;;;9.77;5.65;;;;;;;0.99;71.22;98153.84;5037376;28;20415;-87
2022/02/12 02:58:59;;;;;;;10.70;6.63;;;;;;;1.00;71.32;98145.22;5038112;28;20055;-84
2022/02/12 03:01:28;;;;;;;10.85;5.72;;;;;;;0.99;71.60;98146.97;5037573;28;20049;-85
2022/02/12 03:03:56;;;;;;;12.20;5.63;;;;;;;1.00;71.11;98147.78;5037540;28;20045;-84
2022/02/12 03:06:26;;;;;;;8.95;5.60;;;;;;;0.97;71.03;98145.41;5036485;28;20057;-85
2022/02/12 03:08:54;;;;;;;9.95;5.68;;;;;;;0.97;71.21;98130.81;5041167;28;20053;-85
2022/02/12 03:11:22;;;;;;;10.57;5.80;;;;;;;0.95;70.34;98131.81;5040182;28;20494;-86
2022/02/12 03:13:55;;;;;;;9.77;5.97;;;;;;;0.90;70.61;98128.66;5039751;28;20049;-88
2022/02/12 03:16:22;;;;;;;;;;;;;;;0.93;71.04;98124.16;5039660;28;20048;-88
2022/02/12 03:18:50;;;;;;;11.65;7.35;;;;;;;0.93;72.38;98123.34;5039538;28;19920;-84
2022/02/12 03:21:18;;;;;;;11.15;6.88;;;;;;;0.99;73.44;98112.75;5040573;28;20069;-84
2022/02/12 03:23:46;;;;;;;15.07;8.38;;;;;;;1.02;72.24;98117.69;5039927;28;20053;-87
2022/02/12 03:26:15;;;;;;;12.80;7.13;;;;;;;0.99;71.89;98110.19;5039513;28;20064;-88
2022/02/12 03:28:43;;;;;;;19.00;9.27;;;;;;;0.95;70.82;98112.06;5039186;28;20053;-87
2022/02/12 03:31:14;;;;;;;13.65;8.57;;;;;;;0.92;72.26;98111.41;5039127;28;20049;-86
2022/02/12 03:33:41;;;;;;;14.90;8.07;;;;;;;0.95;73.16;98114.63;5039359;28;20041;-88
2022/02/12 03:36:09;;;;;;;15.70;10.27;;;;;;;1.02;73.56;98113.38;5039160;28;20052;-87
2022/02/12 03:38:39;;;;;;;15.85;8.27;;;;;;;1.02;71.82;98117.69;5039569;28;20049;-84
2022/02/12 03:41:08;;;;;;;17.05;8.55;;;;;;;0.90;69.96;98118.41;5039533;28;20313;-87
2022/02/12 03:43:37;;;;;;;15.05;7.88;;;;;;;0.74;70.21;98108.91;5039253;28;20058;-88
2022/02/12 03:46:06;;;;;;;14.15;8.13;;;;;;;0.62;69.73;98101.91;5039236;28;20083;-88
2022/02/12 03:48:35;;;;;;;11.10;6.70;;;;;;;0.54;70.39;98106.59;5039051;28;20064;-85
2022/02/12 03:51:03;;;;;;;15.98;8.45;;;;;;;0.59;71.99;98107.19;5038826;28;20047;-88
2022/02/12 03:53:30;;;;;;;16.63;8.70;;;;;;;0.67;73.11;98107.59;5040055;28;20053;-89
2022/02/12 03:55:58;;;;;;;16.38;9.82;;;;;;;0.78;73.82;98110.41;5039075;28;20053;-86
2022/02/12 03:58:25;;;;;;;19.25;10.60;;;;;;;0.91;75.16;98107.19;5038574;28;20046;-82
2022/02/12 04:00:53;;;;;;;20.38;11.15;;;;;;;1.01;75.42;98105.78;5038449;28;20042;-87
2022/02/12 04:03:21;;;;;;;17.85;9.35;;;;;;;1.06;74.34;98102.94;5038335;28;20084;-89
2022/02/12 04:05:50;;;;;;;19.85;9.02;;;;;;;1.11;75.37;98101.75;5037883;28;20049;-79
2022/02/12 04:08:18;;;;;;;20.92;10.15;;;;;;;1.19;75.86;98099.59;5038412;28;20507;-83
2022/02/12 04:10:48;;;;;;;17.42;9.65;;;;;;;1.24;75.74;98100.16;5037530;28;20060;-83
2022/02/12 04:13:15;;;;;;;14.98;8.70;;;;;;;1.27;74.67;98103.47;5037334;28;20136;-83
2022/02/12 04:15:43;;;;;;;14.52;7.95;;;;;;;1.30;74.75;98091.28;5037151;28;20056;-84
2022/02/12 04:18:11;;;;;;;14.65;9.23;;;;;;;1.37;75.68;98096.91;5038254;28;20056;-86
2022/02/12 04:20:39;;;;;;;14.25;9.05;;;;;;;1.39;75.22;98092.50;5039058;28;20053;-87
2022/02/12 04:23:09;;;;;;;14.40;9.10;;;;;;;1.39;75.20;98085.59;5047468;28;20051;-80
2022/02/12 04:25:37;;;;;;;17.15;9.60;;;;;;;1.40;74.96;98081.28;5056053;28;20051;-81
2022/02/12 04:28:05;;;;;;;15.23;8.98;;;;;;;1.41;75.40;98082.97;5053947;28;20054;-86
2022/02/12 04:30:33;;;;;;;14.23;9.30;;;;;;;1.44;75.02;98073.34;5041466;28;20056;-86
2022/02/12 04:33:00;;;;;;;15.07;9.20;;;;;;;1.43;74.15;98086.28;5039445;28;20056;-91
2022/02/12 04:35:28;;;;;;;12.93;8.10;;;;;;;1.38;72.94;98078.00;5038867;28;20045;-86
2022/02/12 04:37:55;;;;;;;17.65;8.65;;;;;;;1.30;72.89;98070.72;5044951;28;20060;-88
2022/02/12 04:40:24;;;;;;;13.98;9.02;;;;;;;1.26;72.93;98073.56;5052489;28;20061;-86
2022/02/12 04:42:52;;;;;;;12.07;8.52;;;;;;;1.15;71.78;98067.28;5043642;28;20061;-91
2022/02/12 04:45:19;;;;;;;12.68;8.57;;;;;;;1.08;73.94;98065.97;5039598;28;20056;-90
2022/02/12 04:47:47;;;;;;;18.42;10.00;;;;;;;1.11;73.56;98067.53;5039497;28;20060;-87
2022/02/12 04:50:15;;;;;;;22.98;11.23;;;;;;;1.14;74.61;98070.78;5039322;28;20065;-89
2022/02/12 04:52:42;;;;;;;16.95;9.30;;;;;;;1.20;73.41;98060.16;5038971;28;20047;-89
2022/02/12 04:55:10;;;;;;;14.45;7.82;;;;;;;1.22;73.46;98057.47;5037296;28;20388;-90
2022/02/12 04:57:39;;;;;;;19.85;7.07;;;;;;;1.17;71.37;98050.03;5038298;28;20076;-89
2022/02/12 05:00:09;;;;;;;11.57;4.78;;;;;;;1.08;70.49;98055.69;5038778;28;20400;-88
2022/02/12 05:02:36;;;;;;;12.48;5.95;;;;;;;1.01;71.41;98054.38;5037318;28;20056;-85
2022/02/12 05:05:05;;;;;;;14.25;6.00;;;;;;;0.90;70.50;98056.72;5037492;28;20045;-88
2022/02/12 05:07:32;;;;;;;12.90;5.80;;;;;;;0.81;71.70;98053.75;5036844;28;20049;-87
2022/02/12 05:10:00;;;;;;;10.40;6.43;;;;;;;0.85;72.99;98053.56;5037193;28;20426;-84
2022/02/12 05:12:27;;;;;;;13.60;6.55;;;;;;;0.87;72.04;98047.44;5037926;28;20061;-84
2022/02/12 05:14:56;;;;;;;15.55;7.65;;;;;;;0.84;71.39;98036.50;5037440;28;20046;-90
2022/02/12 05:17:24;;;;;;;15.07;7.57;;;;;;;0.84;72.19;98037.34;5037194;28;20053;-89
2022/02/12 05:19:51;;;;;;;9.52;6.78;;;;;;;0.79;70.75;98040.16;5036705;28;20049;-90
2022/02/12 05:22:21;;;;;;;17.95;7.07;;;;;;;0.75;71.42;98027.59;5037582;28;20045;-88
2022/02/12 05:24:48;;;;;;;11.73;6.50;;;;;;;0.78;72.76;98035.94;5037252;28;20067;-84
2022/02/12 05:27:16;;;;;;;11.88;6.70;;;;;;;0.87;73.28;98026.88;5035962;28;20081;-85
2022/02/12 05:29:44;;;;;;;16.55;8.18;;;;;;;0.86;71.33;98021.84;5036524;28;20099;-83
2022/02/12 05:32:13;;;;;;;12.27;6.63;;;;;;;0.75;70.65;98020.69;5036146;28;20060;-83
2022/02/12 05:34:42;;;;;;;15.32;8.15;;;;;;;0.71;70.49;98016.63;5035843;28;20144;-86
2022/02/12 05:37:10;;;;;;;16.20;7.30;;;;;;;0.68;70.25;98014.25;5035475;28;20049;-83
2022/02/12 05:39:38;;;;;;;28.48;7.50;;;;;;;0.74;71.27;98021.59;5036416;28;20049;-84
2022/02/12 05:42:06;;;;;;;13.98;6.10;;;;;;;0.76;71.68;98018.94;5037363;28;20406;-84
2022/02/12 05:44:33;;;;;;;11.25;6.32;;;;;;;0.81;71.54;98014.41;5036254;28;20511;-83
2022/02/12 05:47:01;;;;;;;17.02;5.90;;;;;;;0.86;71.60;98019.28;5036200;28;20132;-89
2022/02/12 05:49:30;;;;;;;10.18;5.28;;;;;;;0.80;70.15;98015.31;5035653;28;20499;-83
2022/02/12 05:52:01;;;;;;;12.35;5.00;;;;;;;0.75;70.53;98012.16;5035457;28;20053;-83
2022/02/12 05:54:29;;;;;;;12.52;5.60;;;;;;;0.72;70.31;98012.31;5035167;28;20052;-87
2022/02/12 05:56:56;;;;;;;17.45;7.85;;;;;;;0.66;70.08;98008.38;5035231;28;20053;-84
2022/02/12 05:59:24;;;;;;;14.38;5.30;;;;;;;0.64;69.92;98010.19;5036419;28;20053;-85
2022/02/12 06:01:51;;;;;;;12.48;5.10;;;;;;;0.61;69.59;98010.34;5036037;28;20148;-90
2022/02/12 06:04:19;;;;;;;10.15;5.75;;;;;;;0.63;71.40;98015.41;5036285;28;20050;-85
2022/02/12 06:06:48;;;;;;;13.70;6.13;;;;;;;0.66;72.39;98008.38;5036898;28;20053;-87
2022/02/12 06:09:15;;;;;;;9.23;5.43;;;;;;;0.64;71.36;97999.94;5040229;28;20053;-86
2022/02/12 06:11:43;;;;;;;12.00;6.22;;;;;;;0.64;71.46;97999.94;5039539;28;20056;-86
2022/02/12 06:14:11;;;;;;;16.25;8.75;;;;;;;0.66;71.54;97990.41;5040204;28;20052;-84
2022/02/12 06:16:39;;;;;;;32.92;16.73;;;;;;;0.64;70.34;97988.84;5039145;28;20567;-86
2022/02/12 06:19:07;;;;;;;65.35;33.28;;;;;;;0.63;70.81;97980.28;5039443;28;20053;-82
2022/02/12 06:21:35;;;;;;;50.63;26.42;;;;;;;0.70;72.06;97986.75;5041449;28;20514;-86
2022/02/12 06:24:04;;;;;;;18.40;8.27;;;;;;;0.79;72.70;97982.84;5041776;28;20045;-89
2022/02/12 06:26:32;;;;;;;11.45;5.25;;;;;;;0.85;72.61;97977.31;5042994;28;20420;-89
2022/02/12 06:28:59;;;;;;;12.00;5.30;;;;;;;0.89;72.48;97983.94;5044051;28;20215;-89
2022/02/12 06:31:27;;;;;;;8.25;4.80;;;;;;;0.89;71.85;97975.41;5043652;28;20059;-88
2022/02/12 06:33:55;;;;;;;9.23;5.80;;;;;;;0.89;71.88;97983.94;5041877;28;20510;-87
2022/02/12 06:36:22;;;;;;;11.45;5.28;;;;;;;0.88;70.93;97981.50;5046904;28;20057;-89
2022/02/12 06:38:50;;;;;;;14.52;6.22;;;;;;;0.88;71.82;97984.06;5048205;28;20073;-77
2022/02/12 06:41:19;;;;;;;9.85;5.07;;;;;;;0.93;71.87;97990.56;5034789;28;20427;-77
2022/02/12 06:43:46;;;;;;;14.45;6.78;;;;;;;0.96;72.74;97989.56;5035497;28;20064;-81
2022/02/12 06:46:14;;;;;;;11.35;4.82;;;;;;;1.00;73.15;97979.03;5035622;28;20049;-78
2022/02/12 06:48:42;;;;;;;11.18;4.82;;;;;;;0.99;71.53;97977.38;5035507;28;20053;-78
2022/02/12 06:51:10;;;;;;;7.90;4.78;;;;;;;1.01;72.35;97980.69;5036129;28;20430;-77
2022/02/12 06:53:38;;;;;;;9.00;4.82;;;;;;;1.02;71.42;97978.94;5036648;28;20049;-80
2022/02/12 06:56:05;;;;;;;11.25;5.40;;;;;;;1.00;71.84;97971.31;5036863;28;20053;-78
2022/02/12 06:58:37;;;;;;;8.98;5.30;;;;;;;1.05;73.05;97975.38;5037368;28;20392;-80
2022/02/12 07:01:05;;;;;;;9.40;5.20;;;;;;;1.10;73.46;97976.75;5037150;28;20046;-82
2022/02/12 07:03:33;;;;;;;8.55;5.07;;;;;;;1.12;72.38;97980.06;5036719;28;20100;-79
2022/02/12 07:06:00;;;;;;;12.55;5.35;;;;;;;1.08;71.82;97983.72;5036745;28;20589;-79
2022/02/12 07:08:28;;;;;;;16.42;6.03;;;;;;;1.02;71.59;97984.91;5037139;28;20499;-80
2022/02/12 07:10:55;;;;;;;11.55;5.65;;;;;;;1.00;71.97;97986.72;5038045;28;20061;-80
2022/02/12 07:13:23;;;;;;;12.80;6.13;;;;;;;1.00;72.00;97984.16;5038328;28;20056;-79
2022/02/12 07:15:51;;;;;;;10.52;7.03;;;;;;;1.06;73.20;97985.56;5036542;28;20049;-80
2022/02/12 07:18:19;;;;;;;11.95;6.78;;;;;;;1.13;74.06;97974.00;5035898;28;20057;-78
2022/02/12 07:20:47;;;;;;;10.85;6.32;;;;;;;1.26;73.54;97981.00;5036772;28;20064;-78
2022/02/12 07:23:14;;;;;;;15.93;6.15;;;;;;;1.33;72.74;97979.72;5037849;28;20049;-80
2022/02/12 07:25:42;;;;;;;48.55;25.35;;;;;;;1.43;73.11;97979.09;5037116;28;20057;-80
2022/02/12 07:28:10;;;;;;;22.13;8.75;;;;;;;1.59;73.82;97984.16;5035642;28;20061;-78
2022/02/12 07:30:38;;;;;;;13.13;6.40;;;;;;;1.77;73.31;97984.81;5034980;28;20049;-78
2022/02/12 07:33:07;;;;;;;10.45;5.93;;;;;;;1.94;73.50;97988.91;5035531;28;20049;-79
2022/02/12 07:35:35;;;;;;;8.65;5.60;;;;;;;2.09;72.76;97979.44;5036170;28;20534;-78
2022/02/12 07:38:03;;;;;;;13.18;5.50;;;;;;;2.22;72.40;97977.75;5036546;28;20049;-80
2022/02/12 07:40:30;;;;;;;10.88;5.50;;;;;;;2.34;72.70;97978.75;5037386;28;20491;-79
2022/02/12 07:42:58;;;;;;;9.50;6.90;;;;;;;2.44;72.78;97982.38;5035687;28;20050;-76
2022/02/12 07:45:28;;;;;;;14.45;8.23;;;;;;;2.55;72.99;97973.16;5035843;28;20046;-79
2022/02/12 07:47:56;;;;;;;14.05;7.25;;;;;;;2.59;72.28;97979.78;5035579;28;20049;-78
2022/02/12 07:50:25;;;;;;;15.85;6.63;;;;;;;2.59;71.59;97984.91;5035816;28;20054;-77
2022/02/12 07:52:53;;;;;;;12.48;6.25;;;;;;;2.62;72.62;97979.56;5035745;28;20080;-81
2022/02/12 07:55:20;;;;;;;10.15;6.25;;;;;;;2.69;72.81;97975.69;5035584;28;20053;-79
2022/02/12 07:57:48;;;;;;;9.13;6.10;;;;;;;2.73;72.29;97977.13;5035507;28;20099;-79
2022/02/12 08:00:18;;;;;;;12.35;6.55;;;;;;;2.74;72.08;97978.78;5035838;28;20061;-81
2022/02/12 08:02:46;;;;;;;11.63;6.15;;;;;;;2.76;71.78;97976.94;5035871;28;20045;-80
2022/02/12 08:05:14;;;;;;;12.82;7.25;;;;;;;2.80;71.61;97975.81;5033618;28;20060;-81
2022/02/12 08:07:43;;;;;;;12.30;7.38;;;;;;;2.86;71.93;97980.59;5036241;28;20115;-79
2022/02/12 08:12:58;;;;;;;17.00;6.70;;;;;;;3.00;69.94;97978.84;5036475;28;20045;-80
2022/02/12 08:15:26;;;;;;;12.75;6.57;;;;;;;3.01;69.20;97985.66;5036843;28;20128;-78
2022/02/12 08:17:53;;;;;;;9.65;5.50;;;;;;;3.07;68.68;97980.09;5036705;28;20495;-80
2022/02/12 08:20:21;;;;;;;8.88;5.25;;;;;;;3.16;69.02;97978.66;5036576;28;20053;-81
2022/02/12 08:22:51;;;;;;;12.18;7.07;;;;;;;3.26;67.45;97980.53;5036927;28;20049;-80
2022/02/12 08:25:19;;;;;;;10.23;5.70;;;;;;;3.38;67.56;97978.06;5038099;28;20081;-78
2022/02/12 08:27:47;;;;;;;9.60;5.82;;;;;;;3.45;66.31;97981.88;5035955;28;20041;-78
2022/02/12 08:30:15;;;;;;;11.50;5.45;;;;;;;3.55;67.45;97987.25;5040806;28;20523;-82
2022/02/12 08:32:43;;;;;;;10.80;6.50;;;;;;;3.71;67.14;97980.13;5039260;28;20053;-79
2022/02/12 08:35:13;;;;;;;12.60;7.18;;;;;;;3.94;68.47;97978.53;5039230;28;20065;-80
2022/02/12 08:37:42;;;;;;;10.45;5.95;;;;;;;4.21;68.80;97982.72;5040933;28;20060;-82
2022/02/12 08:40:15;;;;;;;16.17;7.63;;;;;;;4.52;66.50;97987.34;5039662;28;20384;-79
2022/02/12 08:42:42;;;;;;;15.68;8.93;;;;;;;4.80;67.63;97976.78;5039827;28;20053;-79
2022/02/12 08:45:11;;;;;;;12.73;6.63;;;;;;;5.06;68.17;97980.06;5039016;28;20392;-80
2022/02/12 08:47:39;;;;;;;16.42;6.70;;;;;;;5.29;65.53;97979.19;5038789;28;20056;-78
2022/02/12 08:50:08;;;;;;;13.40;6.10;;;;;;;5.40;64.91;97980.13;5038077;28;20053;-78
2022/02/12 08:52:36;;;;;;;12.43;6.70;;;;;;;5.61;65.56;97991.44;5040095;28;20057;-77
2022/02/12 08:55:04;;;;;;;11.35;6.65;;;;;;;5.88;63.84;97988.53;5038958;28;20037;-78
2022/02/12 08:57:33;;;;;;;13.00;5.75;;;;;;;6.08;62.41;97979.25;5041271;28;20055;-78
2022/02/12 09:00:01;;;;;;;12.25;6.10;;;;;;;6.17;60.76;97977.72;5038552;28;20053;-78
2022/02/12 09:02:28;;;;;;;12.27;6.80;;;;;;;6.30;62.97;97980.16;5037484;28;20056;-78
2022/02/12 09:04:56;;;;;;;8.95;5.68;;;;;;;6.44;62.32;97979.06;5037969;28;20053;-76
2022/02/12 09:09:54;;;;;;;16.65;9.15;;;;;;;6.69;61.63;97962.38;5010860;28;20400;-79
2022/02/12 09:12:21;;;;;;;11.20;6.10;;;;;;;6.81;58.79;97958.78;5013513;28;20046;-79
2022/02/12 09:14:50;;;;;;;10.38;6.13;;;;;;;6.86;57.67;97961.00;5014467;28;20046;-81
2022/02/12 09:17:18;;;;;;;11.75;5.60;;;;;;;6.94;57.69;97956.03;5013805;28;20416;-79
2022/02/12 09:19:47;;;;;;;10.77;5.50;;;;;;;7.12;57.62;97951.09;5015806;28;20054;-79
2022/02/12 09:22:15;;;;;;;11.75;6.47;;;;;;;7.34;57.46;97950.13;5034684;28;20480;-78
2022/02/12 09:24:43;;;;;;;13.02;7.18;;;;;;;7.55;57.54;97942.31;5034589;28;20034;-79
2022/02/12 09:27:11;;;;;;;14.23;7.22;;;;;;;7.77;56.22;97938.72;5026851;28;20057;-79
2022/02/12 09:29:39;;;;;;;15.43;9.20;;;;;;;7.95;55.90;97941.50;5012679;28;20050;-79
2022/02/12 09:32:11;;;;;;;15.13;6.88;;;;;;;8.07;56.93;97935.28;5012905;28;20431;-79
2022/02/12 09:34:39;;;;;;;12.02;5.55;;;;;;;8.21;54.59;97940.06;5014676;28;20052;-79
2022/02/12 09:37:07;;;;;;;11.27;5.93;;;;;;;8.25;54.12;97935.44;5016264;28;20061;-79
2022/02/12 09:39:34;;;;;;;9.30;5.47;;;;;;;8.42;56.67;97928.81;5013823;28;20104;-79
2022/02/12 09:42:02;;;;;;;13.38;6.90;;;;;;;8.66;57.27;97925.81;5012983;28;20050;-79
2022/02/12 09:44:29;;;;;;;12.35;5.75;;;;;;;8.87;54.15;97934.25;5012955;28;20408;-79
2022/02/12 09:47:35;;;;;;;12.48;5.80;;;;;;;9.00;51.43;97925.34;5012940;28;20297;-79
2022/02/12 09:50:06;;;;;;;10.00;6.00;;;;;;;9.21;55.73;97925.19;5007968;28;20053;-79
2022/02/12 09:52:34;;;;;;;7.80;5.78;;;;;;;9.39;53.90;97933.09;5013096;28;20080;-78
2022/02/12 09:55:04;;;;;;;11.00;5.65;;;;;;;9.48;53.52;97930.44;5012897;28;20056;-78
2022/02/12 09:57:32;;;;;;;15.05;6.80;;;;;;;9.59;52.76;97926.03;5012317;28;20068;-79
2022/02/12 10:00:03;;;;;;;10.50;6.50;;;;;;;9.72;53.55;97933.53;5013168;28;20057;-79
2022/02/12 10:02:31;;;;;;;9.63;6.45;;;;;;;9.96;51.70;97930.41;5013213;28;20056;-79
2022/02/12 10:05:21;;;;;;;10.30;5.70;;;;;;;10.13;49.01;97934.84;5012692;28;20042;-79
2022/02/12 10:07:49;;;;;;;9.82;6.25;;;;;;;10.23;48.80;97927.78;5012451;28;20057;-79
2022/02/12 10:10:19;;;;;;;10.02;5.85;;;;;;;10.24;48.71;97913.78;5012608;28;20058;-79
2022/02/12 10:12:46;;;;;;;11.85;5.65;;;;;;;10.33;48.92;97906.88;5016023;28;20049;-78
2022/02/12 10:15:24;;;;;;;12.43;7.60;;;;;;;12.19;43.99;97909.22;5012686;28;20070;-77
2022/02/12 10:17:58;;;;;;;12.05;6.78;;;;;;;14.52;40.83;97911.06;5012596;28;20096;-77
2022/02/12 10:20:32;;;;;;;10.43;6.28;;;;;;;15.19;37.15;97903.31;5012604;28;20077;-78
2022/02/12 10:23:08;;;;;;;10.07;6.20;;;;;;;14.04;37.60;97899.84;5013098;28;20060;-80
2022/02/12 10:25:37;;;;;;;9.63;5.70;;;;;;;12.95;40.63;97902.09;5013155;28;20053;-78
2022/02/12 10:28:06;;;;;;;8.18;5.00;;;;;;;12.31;41.88;97900.09;5012611;28;20061;-77
2022/02/12 10:30:35;;;;;;;13.55;5.85;;;;;;;11.83;42.01;97896.34;5012562;28;20049;-78
2022/02/12 10:33:05;;;;;;;9.55;5.82;;;;;;;11.60;43.46;97895.25;5012329;28;20088;-77
2022/02/12 10:35:35;;;;;;;9.38;5.55;;;;;;;11.50;46.44;97904.03;5012407;28;20073;-77
2022/02/12 10:38:04;;;;;;;10.93;6.38;;;;;;;11.46;43.52;97892.25;5012152;28;20064;-77
2022/02/12 10:40:33;;;;;;;14.30;6.63;;;;;;;11.25;43.35;97887.38;5012215;28;20054;-78
2022/02/12 10:43:01;;;;;;;12.27;5.75;;;;;;;11.10;43.71;97883.69;5012429;28;20056;-77
2022/02/12 10:45:30;;;;;;;13.80;6.70;;;;;;;11.54;43.85;97878.38;5012470;28;20054;-79
2022/02/12 10:48:02;;;;;;;12.30;6.90;;;;;;;12.66;44.22;97879.84;5012301;28;20081;-79
2022/02/12 10:50:32;;;;;;;12.18;8.48;;;;;;;13.66;40.51;97876.91;5012376;28;20054;-79
2022/02/12 10:53:07;;;;;;;8.07;4.70;;;;;;;13.96;37.65;97875.31;5013343;28;20054;-79
2022/02/12 10:55:37;;;;;;;7.57;4.65;;;;;;;13.48;38.02;97866.66;5016191;28;20042;-78
2022/02/12 10:58:07;;;;;;;8.02;4.30;;;;;;;12.78;39.16;97854.97;5015830;28;20575;-78
2022/02/12 11:00:37;;;;;;;9.55;5.15;;;;;;;12.47;39.73;97854.00;5015776;28;20060;-78
2022/02/12 11:03:09;;;;;;;8.93;4.90;;;;;;;12.62;39.67;97838.47;5016334;28;20057;-78
2022/02/12 11:05:38;;;;;;;8.02;4.55;;;;;;;13.04;38.58;97834.81;5016391;28;20057;-79
2022/02/12 11:08:08;;;;;;;9.95;4.65;;;;;;;13.68;40.47;97832.19;5015265;28;20057;-79
2022/02/12 11:10:37;;;;;;;7.70;3.85;;;;;;;14.34;36.18;97828.19;5015275;28;20054;-79
2022/02/12 11:13:06;;;;;;;7.50;3.53;;;;;;;14.79;34.76;97823.09;5015642;28;20053;-79
2022/02/12 11:15:34;;;;;;;6.43;3.83;;;;;;;15.50;33.98;97814.75;5015955;28;20415;-78
2022/02/12 11:18:11;;;;;;;8.15;4.35;;;;;;;16.09;32.61;97817.28;5015865;28;20118;-79
2022/02/12 11:20:40;;;;;;;6.55;4.43;;;;;;;16.56;31.81;97809.84;5016411;28;20050;-79
2022/02/12 11:23:28;;;;;;;6.75;3.17;;;;;;;17.20;31.68;97806.25;5014557;28;20492;-80
2022/02/12 11:26:20;;;;;;;8.75;4.50;;;;;;;17.70;28.94;97802.44;4996917;28;20050;-80
2022/02/12 11:28:48;;;;;;;8.35;4.72;;;;;;;18.12;29.13;97799.75;4997653;28;20054;-80
2022/02/12 11:31:19;;;;;;;4.75;3.13;;;;;;;18.48;27.50;97794.09;4997238;28;20046;-80
2022/02/12 11:34:04;;;;;;;4.25;2.70;;;;;;;18.98;27.39;97784.94;4997030;28;20046;-79
2022/02/12 11:36:33;;;;;;;7.20;2.70;;;;;;;19.53;26.23;97780.13;5037760;28;20033;-80
2022/02/12 11:39:08;;;;;;;6.70;3.38;;;;;;;19.68;25.48;97771.91;5046948;28;20046;-80
2022/02/12 11:41:37;;;;;;;6.38;2.90;;;;;;;19.95;25.46;97767.31;5032380;28;20065;-80
2022/02/12 11:44:05;;;;;;;4.32;2.53;;;;;;;20.10;27.34;97777.59;5034605;28;20056;-80
2022/02/12 11:47:01;;;;;;;13.73;4.18;;;;;;;19.99;24.63;97768.50;5037130;28;20392;-80
2022/02/12 11:49:30;;;;;;;3.80;2.95;;;;;;;20.22;24.16;97748.56;5036364;28;20053;-79
2022/02/12 11:52:01;;;;;;;4.60;2.38;;;;;;;20.22;23.86;97740.63;5030855;28;20049;-79